Time;durP1;ratioP1;P1;durP2;ratioP2;P2;SDS_P1;SDS_P2;PMS_P1;PMS_P2;Temp;Humidity;BMP_temperature;BMP_pressure;BME280_temperature;BME280_humidity;BME280_pressure;Samples;Min_cycle;Max_cycle;Signal;HPM_P1;HPM_P2
2023/01/03 06:01:18;;;;;;;3.23;1.50;;;6.80;99.90;;;;;;5825477;24;20025;-74
2023/01/03 06:03:47;;;;;;;3.95;1.40;;;6.70;99.90;;;;;;4881144;29;20060;-76
2023/01/03 06:06:14;;;;;;;2.85;1.33;;;6.70;99.90;;;;;;4882585;29;20037;-75
2023/01/03 06:08:40;;;;;;;3.45;1.40;;;6.60;99.90;;;;;;4888568;29;20029;-74
2023/01/03 06:11:12;;;;;;;3.75;1.60;;;6.60;99.90;;;;;;4887977;29;20375;-75
2023/01/03 06:13:38;;;;;;;4.00;1.80;;;6.60;99.90;;;;;;4888622;29;20102;-75
2023/01/03 06:18:50;;;;;;;4.63;1.60;;;6.60;99.90;;;;;;4887990;29;20064;-75
2023/01/03 06:21:16;;;;;;;5.25;1.75;;;6.50;99.90;;;;;;4887285;29;20228;-75
2023/01/03 06:23:44;;;;;;;2.67;1.30;;;6.50;99.90;;;;;;4888375;29;20029;-75
2023/01/03 06:26:10;;;;;;;3.57;1.30;;;6.50;99.90;;;;;;4887870;29;20025;-75
2023/01/03 06:28:36;;;;;;;3.90;1.70;;;6.50;99.90;;;;;;4888410;29;20055;-75
2023/01/03 06:31:04;;;;;;;3.95;1.60;;;6.50;99.90;;;;;;4887751;29;20279;-75
2023/01/03 06:33:30;;;;;;;;;;;6.50;99.90;;;;;;4888755;29;20157;-74
2023/01/03 06:35:56;;;;;;;4.00;1.95;;;6.50;99.90;;;;;;4887515;29;19936;-77
2023/01/03 06:38:22;;;;;;;5.68;2.08;;;6.50;99.90;;;;;;4889946;29;20244;-75
2023/01/03 06:40:48;;;;;;;6.40;2.00;;;6.40;99.90;;;;;;4888396;29;20025;-76
2023/01/03 06:43:14;;;;;;;3.10;1.80;;;6.40;99.90;;;;;;4888244;29;20024;-76
2023/01/03 06:54:00;;;;;;;3.25;1.83;;;6.20;99.90;;;;;;4887399;29;20092;-74
2023/01/03 06:56:25;;;;;;;3.45;1.55;;;6.20;99.90;;;;;;4888017;29;20310;-74
2023/01/03 06:58:51;;;;;;;4.38;1.60;;;6.10;99.90;;;;;;4873449;29;20203;-75
2023/01/03 07:01:18;;;;;;;5.35;1.92;;;6.10;99.90;;;;;;4868773;29;20034;-74
2023/01/03 07:03:43;;;;;;;4.95;2.03;;;6.10;99.90;;;;;;4870265;29;20037;-74
2023/01/03 07:06:09;;;;;;;5.68;2.03;;;6.00;99.90;;;;;;4871329;29;20281;-73
2023/01/03 07:08:35;;;;;;;4.10;2.00;;;6.00;99.90;;;;;;4872737;29;20077;-74
2023/01/03 07:11:01;;;;;;;4.63;2.20;;;6.00;99.90;;;;;;4886395;29;20045;-75
2023/01/03 07:16:15;;;;;;;5.75;2.15;;;5.90;99.90;;;;;;4890856;29;20037;-76
2023/01/03 07:18:40;;;;;;;5.38;2.17;;;5.90;99.90;;;;;;4891807;29;20043;-74
2023/01/03 07:21:07;;;;;;;4.97;2.05;;;5.80;99.90;;;;;;4891153;29;20321;-74
2023/01/03 07:23:33;;;;;;;4.70;2.03;;;5.90;99.90;;;;;;4891425;29;20044;-74
2023/01/03 07:25:59;;;;;;;5.70;1.80;;;5.80;99.90;;;;;;4889395;29;20035;-74
2023/01/03 07:28:25;;;;;;;4.88;2.08;;;5.80;99.90;;;;;;4891005;29;20040;-74
2023/01/03 07:30:51;;;;;;;3.90;1.77;;;5.80;99.90;;;;;;4891072;29;20041;-75
2023/01/03 07:33:17;;;;;;;6.28;2.40;;;5.80;99.90;;;;;;4889415;29;20370;-75
2023/01/03 07:35:43;;;;;;;4.10;2.40;;;5.90;99.90;;;;;;4891462;29;20029;-75
2023/01/03 07:38:12;;;;;;;4.82;2.35;;;5.90;99.90;;;;;;4890380;29;20364;-75
2023/01/03 07:40:38;;;;;;;8.05;2.75;;;5.90;99.90;;;;;;4891082;29;20029;-75
2023/01/03 07:45:48;;;;;;;9.10;2.60;;;6.00;99.90;;;;;;4891210;29;20029;-75
2023/01/03 07:48:14;;;;;;;7.63;2.65;;;6.10;99.90;;;;;;4890577;29;20032;-75
2023/01/03 07:50:41;;;;;;;5.07;2.22;;;6.10;99.90;;;;;;4890623;29;20222;-75
2023/01/03 07:53:07;;;;;;;4.70;2.20;;;6.20;99.90;;;;;;4890160;29;20049;-75
2023/01/03 07:55:35;;;;;;;4.30;1.90;;;6.30;99.90;;;;;;4890724;29;20029;-76
2023/01/03 07:58:01;;;;;;;4.57;2.30;;;6.40;99.90;;;;;;4882489;29;20041;-75
2023/01/03 08:00:26;;;;;;;4.75;2.45;;;6.50;99.90;;;;;;4886299;29;20036;-75
2023/01/03 08:02:53;;;;;;;3.85;2.10;;;6.60;99.90;;;;;;4871520;29;20053;-75
2023/01/03 08:05:20;;;;;;;3.88;2.40;;;6.70;99.90;;;;;;4872216;29;20118;-74
2023/01/03 08:07:48;;;;;;;5.90;2.40;;;6.80;99.90;;;;;;4872208;29;20240;-75
2023/01/03 08:13:18;;;;;;;6.95;2.65;;;6.90;99.90;;;;;;4890072;29;20334;-75
2023/01/03 08:15:54;;;;;;;6.68;2.55;;;7.00;99.90;;;;;;4889636;29;20335;-75
2023/01/03 08:18:24;;;;;;;5.72;2.38;;;7.10;99.90;;;;;;4890501;29;20306;-75
2023/01/03 08:20:53;;;;;;;7.10;2.45;;;7.20;99.90;;;;;;4889350;29;20044;-75
2023/01/03 08:23:18;;;;;;;;;;;7.30;99.90;;;;;;4890270;29;20029;-76
2023/01/03 08:25:44;;;;;;;14.20;4.43;;;7.40;99.90;;;;;;4889286;29;19956;-76
2023/01/03 08:28:10;;;;;;;16.50;5.25;;;7.40;99.90;;;;;;4888731;29;20033;-76
2023/01/03 08:30:46;;;;;;;19.13;4.63;;;7.50;99.90;;;;;;4890191;29;20033;-75
2023/01/03 08:33:14;;;;;;;16.73;5.40;;;7.60;99.90;;;;;;4873339;29;20029;-75
2023/01/03 08:35:45;;;;;;;19.95;6.07;;;7.60;99.90;;;;;;4889394;29;20103;-76
2023/01/03 08:38:16;;;;;;;14.73;4.85;;;7.70;99.90;;;;;;4890162;29;20038;-76
2023/01/03 08:40:44;;;;;;;11.70;3.75;;;7.70;99.90;;;;;;4890107;29;20104;-76
2023/01/03 08:43:11;;;;;;;8.20;2.80;;;7.70;99.90;;;;;;4889373;29;20033;-76
2023/01/03 08:45:37;;;;;;;7.65;2.72;;;7.70;99.90;;;;;;4889995;29;20029;-75
2023/01/03 08:48:05;;;;;;;7.40;3.05;;;7.80;99.90;;;;;;4888008;29;20097;-76
2023/01/03 08:50:30;;;;;;;5.27;2.67;;;7.80;99.90;;;;;;4889522;29;20054;-77
2023/01/03 08:52:57;;;;;;;11.20;2.70;;;7.80;99.90;;;;;;4889555;29;20093;-76
2023/01/03 08:55:22;;;;;;;5.97;2.35;;;7.80;99.90;;;;;;4873201;29;20127;-76
2023/01/03 08:57:48;;;;;;;3.90;2.05;;;7.80;99.90;;;;;;4883643;29;20308;-77
2023/01/03 09:00:14;;;;;;;6.22;2.45;;;7.90;99.90;;;;;;4870782;29;20033;-76
2023/01/03 09:02:40;;;;;;;5.47;2.67;;;8.00;99.90;;;;;;4870781;29;20061;-77
2023/01/03 09:05:07;;;;;;;5.72;2.20;;;8.10;99.90;;;;;;4870689;29;20041;-76
2023/01/03 09:07:32;;;;;;;7.03;2.50;;;8.20;99.90;;;;;;4871181;29;20026;-75
2023/01/03 09:09:58;;;;;;;5.22;2.63;;;8.30;99.90;;;;;;4877692;29;20035;-76
2023/01/03 09:12:24;;;;;;;6.25;2.60;;;8.40;99.90;;;;;;4889642;29;20044;-77
2023/01/03 09:14:50;;;;;;;5.40;2.80;;;8.50;99.90;;;;;;4889128;29;20037;-76
2023/01/03 09:17:15;;;;;;;8.18;3.28;;;8.50;99.90;;;;;;4888886;29;20025;-76
2023/01/03 09:19:41;;;;;;;5.35;2.70;;;8.50;99.90;;;;;;4889259;29;20053;-77
2023/01/03 09:22:07;;;;;;;7.80;3.13;;;8.60;99.90;;;;;;4888963;29;20041;-76
2023/01/03 09:24:32;;;;;;;4.78;2.70;;;8.60;99.90;;;;;;4889123;29;20203;-73
2023/01/03 09:26:59;;;;;;;5.35;2.47;;;8.60;99.90;;;;;;4888807;29;20214;-74
2023/01/03 09:29:24;;;;;;;4.72;2.60;;;8.60;99.90;;;;;;4889371;29;20029;-75
2023/01/03 09:31:50;;;;;;;5.10;2.50;;;8.70;99.90;;;;;;4889314;29;20156;-73
2023/01/03 09:34:16;;;;;;;5.13;2.45;;;8.80;99.90;;;;;;4888717;29;20048;-75
2023/01/03 09:36:42;;;;;;;5.88;2.35;;;8.80;99.90;;;;;;4889447;29;20049;-75
2023/01/03 09:39:07;;;;;;;5.63;2.35;;;8.80;99.90;;;;;;4888710;29;20353;-75
2023/01/03 09:41:34;;;;;;;5.60;1.90;;;8.90;99.90;;;;;;4888995;29;20041;-77
2023/01/03 09:44:03;;;;;;;5.70;2.38;;;8.90;99.90;;;;;;4888333;29;20033;-80
2023/01/03 09:46:31;;;;;;;3.47;1.92;;;9.00;99.90;;;;;;4888938;29;20033;-75
2023/01/03 09:48:59;;;;;;;4.82;2.15;;;9.10;99.90;;;;;;4887932;29;20037;-76
2023/01/03 10:03:43;;;;;;;13.10;4.00;;;9.40;99.90;;;;;;4867272;29;20045;-76
2023/01/03 10:06:18;;;;;;;10.02;3.97;;;9.40;99.90;;;;;;4868690;29;20033;-75
2023/01/03 10:09:02;;;;;;;10.68;4.18;;;9.50;99.90;;;;;;4869838;29;20037;-75
2023/01/03 10:11:38;;;;;;;10.48;4.45;;;9.60;99.90;;;;;;4869703;29;20104;-75
2023/01/03 10:14:21;;;;;;;7.90;3.83;;;9.60;99.90;;;;;;4869399;29;20029;-76
2023/01/03 10:16:53;;;;;;;5.13;3.35;;;9.60;99.90;;;;;;4870087;29;20033;-76
2023/01/03 10:19:46;;;;;;;4.80;3.13;;;9.60;99.90;;;;;;4869165;29;20091;-77
2023/01/03 10:22:22;;;;;;;5.10;3.08;;;9.60;99.90;;;;;;4869324;29;20033;-76
2023/01/03 10:25:06;;;;;;;6.10;2.92;;;9.70;99.90;;;;;;4869708;29;20060;-76
2023/01/03 10:27:45;;;;;;;6.68;3.30;;;9.60;99.90;;;;;;4871617;29;20045;-77
2023/01/03 10:30:50;;;;;;;5.75;3.55;;;9.60;99.90;;;;;;4886702;29;20303;-78
2023/01/03 10:33:27;;;;;;;8.23;3.63;;;9.50;99.90;;;;;;4851919;29;20037;-75
2023/01/03 10:35:53;;;;;;;7.90;3.70;;;9.40;99.90;;;;;;4888092;29;20032;-75
2023/01/03 10:38:24;;;;;;;12.05;5.28;;;9.40;99.90;;;;;;4885409;29;20064;-75
2023/01/03 10:40:57;;;;;;;12.95;5.05;;;9.40;99.90;;;;;;4887962;29;20318;-76
2023/01/03 10:43:36;;;;;;;12.65;5.43;;;9.40;99.90;;;;;;4887995;29;20039;-75
2023/01/03 10:46:13;;;;;;;20.70;7.35;;;9.40;99.90;;;;;;4888080;29;20036;-75
2023/01/03 10:48:42;;;;;;;20.00;7.30;;;9.40;99.90;;;;;;4888182;29;20104;-75
2023/01/03 10:51:26;;;;;;;18.05;7.20;;;9.50;99.90;;;;;;4887125;29;20103;-74
2023/01/03 10:53:54;;;;;;;12.70;5.28;;;9.80;99.90;;;;;;4887884;29;20060;-77
2023/01/03 10:56:20;;;;;;;8.17;4.10;;;10.10;99.90;;;;;;4887212;29;20028;-76
2023/01/03 10:58:46;;;;;;;6.32;3.50;;;10.50;99.90;;;;;;4883377;29;20451;-74
2023/01/03 11:01:22;;;;;;;5.80;3.28;;;10.90;99.90;;;;;;4868261;29;20044;-75
2023/01/03 11:04:14;;;;;;;5.60;2.90;;;11.40;99.90;;;;;;4885684;29;20306;-75
2023/01/03 11:07:11;;;;;;;5.88;2.60;;;11.90;99.90;;;;;;4888034;29;20100;-75
2023/01/03 11:09:57;;;;;;;6.97;2.85;;;12.30;99.90;;;;;;4880457;29;20096;-75
2023/01/03 11:12:22;;;;;;;4.93;2.50;;;12.80;99.90;;;;;;4887381;29;20033;-76
2023/01/03 11:14:50;;;;;;;9.15;2.70;;;13.20;99.90;;;;;;4886502;29;20338;-78
2023/01/03 11:17:21;;;;;;;3.70;2.10;;;13.70;99.90;;;;;;4887453;29;20037;-79
2023/01/03 11:19:51;;;;;;;5.68;2.40;;;14.30;99.90;;;;;;4887569;29;20076;-79
2023/01/03 11:22:59;;;;;;;3.72;1.92;;;14.80;98.60;;;;;;4871165;29;20040;-77
2023/01/03 11:25:44;;;;;;;5.13;1.98;;;15.10;97.40;;;;;;4847595;29;20210;-77
2023/01/03 11:28:28;;;;;;;4.72;2.22;;;15.60;96.80;;;;;;4846589;29;20352;-77
2023/01/03 11:31:19;;;;;;;5.18;2.20;;;16.00;95.90;;;;;;4833207;29;20109;-77
2023/01/03 11:34:11;;;;;;;4.72;2.53;;;16.80;94.30;;;;;;4848729;29;20034;-76
2023/01/03 11:36:49;;;;;;;6.53;2.50;;;16.80;93.70;;;;;;4848689;29;20347;-76
2023/01/03 11:39:54;;;;;;;4.57;2.47;;;16.50;93.90;;;;;;4848278;29;20101;-76
2023/01/03 11:42:30;;;;;;;4.13;2.45;;;16.70;93.60;;;;;;4848039;29;20046;-76
2023/01/03 11:45:10;;;;;;;5.82;2.58;;;17.50;92.10;;;;;;4848388;29;20038;-76
2023/01/03 11:48:03;;;;;;;4.65;2.40;;;17.70;91.80;;;;;;4848420;29;20029;-76
2023/01/03 11:51:02;;;;;;;5.22;2.42;;;18.00;91.00;;;;;;4832464;29;20042;-76
2023/01/03 11:53:37;;;;;;;4.30;1.92;;;18.60;90.90;;;;;;4833070;29;20263;-76
2023/01/03 11:56:16;;;;;;;4.18;2.20;;;19.40;88.20;;;;;;4851585;29;20211;-77
2023/01/03 11:59:06;;;;;;;5.80;2.20;;;19.80;85.20;;;;;;4877799;29;20063;-77
2023/01/03 12:02:10;;;;;;;4.47;2.17;;;19.90;84.90;;;;;;4889108;29;20037;-76
2023/01/03 12:05:02;;;;;;;4.18;2.15;;;20.70;82.90;;;;;;4890664;29;20060;-76
2023/01/03 12:07:59;;;;;;;4.03;2.10;;;20.90;81.40;;;;;;4890418;29;20041;-76
2023/01/03 12:11:04;;;;;;;4.33;2.07;;;21.30;80.30;;;;;;4890479;29;20100;-77
2023/01/03 12:13:30;;;;;;;9.35;3.05;;;21.40;78.30;;;;;;4890234;29;20044;-75
2023/01/03 12:16:01;;;;;;;6.15;2.05;;;19.40;80.50;;;;;;4885020;29;20048;-74
2023/01/03 12:18:45;;;;;;;3.72;1.77;;;18.50;83.10;;;;;;4890255;29;20044;-75
2023/01/03 12:21:33;;;;;;;4.80;1.95;;;17.30;86.30;;;;;;4889608;29;20036;-75
2023/01/03 12:24:23;;;;;;;5.45;2.15;;;16.80;88.60;;;;;;4890655;29;20036;-75
2023/01/03 12:27:02;;;;;;;3.92;1.63;;;17.10;87.90;;;;;;4887614;29;20028;-77
2023/01/03 12:29:56;;;;;;;5.72;1.95;;;16.20;89.30;;;;;;4888749;29;20052;-76
2023/01/03 12:32:41;;;;;;;3.97;1.60;;;16.70;90.10;;;;;;4878928;29;20067;-76
2023/01/03 12:35:25;;;;;;;4.10;1.85;;;18.30;87.60;;;;;;4890369;29;20093;-76
2023/01/03 12:37:51;;;;;;;3.92;1.50;;;19.60;84.60;;;;;;4890354;29;20077;-76
2023/01/03 12:40:41;;;;;;;3.65;1.50;;;21.00;80.90;;;;;;4889996;29;20063;-76
2023/01/03 12:43:12;;;;;;;2.83;1.40;;;21.80;77.60;;;;;;4890220;29;20100;-76
2023/01/03 12:45:50;;;;;;;4.45;1.77;;;22.00;76.60;;;;;;4890362;29;20032;-76
2023/01/03 12:48:41;;;;;;;3.03;1.38;;;22.30;76.40;;;;;;4889148;29;20033;-76
2023/01/03 12:51:07;;;;;;;2.67;1.38;;;22.20;74.90;;;;;;4890122;29;20040;-76
2023/01/03 12:54:00;;;;;;;3.22;1.10;;;22.40;73.60;;;;;;4888397;29;20036;-76
2023/01/03 12:57:07;;;;;;;3.25;1.38;;;21.70;74.40;;;;;;4889607;29;20045;-76
2023/01/03 12:59:44;;;;;;;2.92;1.10;;;21.10;75.60;;;;;;4889658;29;20061;-77
2023/01/03 13:02:22;;;;;;;3.25;1.27;;;20.60;76.60;;;;;;4887952;29;20236;-77
2023/01/03 13:05:11;;;;;;;3.08;1.30;;;20.50;76.40;;;;;;4873158;29;20059;-75
2023/01/03 13:07:41;;;;;;;3.75;1.10;;;20.20;77.50;;;;;;4862177;29;20327;-76
2023/01/03 13:10:13;;;;;;;3.72;1.40;;;20.40;76.50;;;;;;4885434;29;20120;-76
2023/01/03 13:12:42;;;;;;;4.97;1.40;;;20.20;76.50;;;;;;4870980;29;20228;-75
2023/01/03 13:15:22;;;;;;;2.60;1.30;;;19.70;77.10;;;;;;4870734;29;20049;-76
2023/01/03 13:17:49;;;;;;;3.20;1.02;;;19.40;77.80;;;;;;4871370;29;20113;-76
2023/01/03 13:20:26;;;;;;;2.97;1.20;;;19.60;77.70;;;;;;4870550;29;20219;-75
2023/01/03 13:22:53;;;;;;;3.13;1.20;;;19.70;77.20;;;;;;4869626;29;20100;-76
2023/01/03 13:25:25;;;;;;;4.03;1.25;;;19.70;77.20;;;;;;4874418;29;20029;-76
2023/01/03 13:27:52;;;;;;;2.63;0.90;;;19.30;77.60;;;;;;4889051;29;20029;-76
2023/01/03 13:30:23;;;;;;;3.97;1.20;;;18.90;78.50;;;;;;4888490;29;20080;-76
2023/01/03 13:33:09;;;;;;;2.25;0.90;;;18.40;79.40;;;;;;4888926;29;20045;-75
2023/01/03 13:35:44;;;;;;;2.42;0.90;;;17.90;80.50;;;;;;4888176;29;20036;-76
2023/01/03 13:38:34;;;;;;;2.55;0.90;;;17.50;81.60;;;;;;4888926;29;20028;-76
2023/01/03 13:41:03;;;;;;;2.65;0.98;;;17.50;81.80;;;;;;4889066;29;20044;-76
2023/01/03 13:43:37;;;;;;;3.63;1.50;;;17.40;82.30;;;;;;4887411;29;20051;-76
2023/01/03 13:46:25;;;;;;;3.33;1.38;;;17.30;82.50;;;;;;4872376;29;20361;-76
2023/01/03 13:48:57;;;;;;;2.70;1.08;;;17.00;82.80;;;;;;4888581;29;20062;-75
2023/01/03 13:51:38;;;;;;;3.10;1.27;;;16.50;83.50;;;;;;4888206;29;20043;-75
2023/01/03 13:54:23;;;;;;;2.63;1.33;;;16.10;84.70;;;;;;4889025;29;20119;-76
2023/01/03 13:56:51;;;;;;;5.05;1.40;;;15.60;86.40;;;;;;4888683;29;20141;-74
2023/01/03 13:59:35;;;;;;;2.72;1.33;;;15.30;86.90;;;;;;4886758;29;20021;-72
2023/01/03 14:02:22;;;;;;;3.40;1.10;;;15.00;87.60;;;;;;4888075;29;20331;-74
2023/01/03 14:05:19;;;;;;;3.03;1.30;;;15.00;89.00;;;;;;4888275;29;20064;-72
2023/01/03 14:07:56;;;;;;;5.25;2.30;;;14.80;89.00;;;;;;4886873;29;20043;-74
2023/01/03 14:10:52;;;;;;;7.72;2.10;;;14.50;89.60;;;;;;4886369;29;20028;-73
2023/01/03 14:13:44;;;;;;;2.92;1.30;;;14.30;90.30;;;;;;4868514;29;20052;-72
2023/01/03 14:16:26;;;;;;;4.05;1.63;;;14.10;91.10;;;;;;4867595;29;20071;-72
2023/01/03 14:19:27;;;;;;;3.67;1.58;;;14.00;91.00;;;;;;4870652;29;20037;-73
2023/01/03 14:21:59;;;;;;;2.67;1.10;;;13.90;91.00;;;;;;4871865;29;20033;-78
2023/01/03 14:24:31;;;;;;;5.80;1.00;;;13.70;91.50;;;;;;4868335;29;20264;-78
2023/01/03 14:27:06;;;;;;;2.95;0.88;;;13.70;91.60;;;;;;4886635;29;20033;-78
2023/01/03 14:29:35;;;;;;;2.10;0.90;;;13.70;91.60;;;;;;4886624;29;20036;-77
2023/01/03 14:32:01;;;;;;;2.92;1.00;;;13.70;91.30;;;;;;4888309;29;20352;-78
2023/01/03 14:34:39;;;;;;;3.15;1.00;;;13.60;91.60;;;;;;4887437;29;20032;-80
2023/01/03 14:37:17;;;;;;;4.50;1.43;;;13.90;91.50;;;;;;4883284;29;20045;-79
2023/01/03 14:39:59;;;;;;;4.78;1.80;;;14.50;90.80;;;;;;4886778;29;20459;-77
2023/01/03 14:42:25;;;;;;;5.55;1.90;;;14.80;90.50;;;;;;4887482;29;20200;-76
2023/01/03 14:44:54;;;;;;;3.08;1.40;;;14.90;90.10;;;;;;4887733;29;20037;-76
2023/01/03 14:47:21;;;;;;;2.60;1.00;;;15.00;90.00;;;;;;4884979;29;20029;-77
2023/01/03 14:49:51;;;;;;;4.63;1.20;;;15.20;89.30;;;;;;4887508;29;20032;-77
2023/01/03 14:52:20;;;;;;;3.97;1.42;;;15.50;90.20;;;;;;4887137;29;20034;-76
2023/01/03 14:54:49;;;;;;;3.33;1.30;;;15.70;88.10;;;;;;4887789;29;20040;-77
2023/01/03 14:57:18;;;;;;;3.55;1.20;;;15.30;88.10;;;;;;4887724;29;20029;-76
2023/01/03 14:59:44;;;;;;;3.17;1.10;;;14.90;89.00;;;;;;4887721;29;20036;-77
2023/01/03 15:02:11;;;;;;;2.95;1.10;;;14.40;90.10;;;;;;4887029;29;20037;-77
2023/01/03 15:04:43;;;;;;;3.88;1.38;;;14.20;91.10;;;;;;4885687;29;20326;-77
2023/01/03 15:07:23;;;;;;;3.58;1.35;;;13.70;91.20;;;;;;4886850;29;20053;-76
2023/01/03 15:10:00;;;;;;;3.50;1.00;;;13.50;91.90;;;;;;4886451;29;20033;-77
2023/01/03 15:12:34;;;;;;;2.97;1.17;;;13.40;92.00;;;;;;4886510;29;20094;-78
2023/01/03 15:15:38;;;;;;;3.83;1.02;;;13.20;92.20;;;;;;4886719;29;20060;-78
2023/01/03 15:18:06;;;;;;;4.30;1.38;;;13.10;92.20;;;;;;4880007;29;20124;-80
2023/01/03 15:20:41;;;;;;;3.25;1.42;;;13.00;94.10;;;;;;4868961;29;20117;-77
2023/01/03 15:23:21;;;;;;;3.40;1.02;;;12.90;92.90;;;;;;4868198;29;20215;-78
2023/01/03 15:25:47;;;;;;;5.97;1.15;;;12.80;93.10;;;;;;4879161;29;20073;-77
2023/01/03 15:28:47;;;;;;;3.30;1.40;;;12.70;93.30;;;;;;4891175;29;20257;-78
2023/01/03 15:31:24;;;;;;;4.18;1.50;;;12.50;94.20;;;;;;4891272;29;20108;-78
2023/01/03 15:34:02;;;;;;;5.38;2.00;;;12.50;95.50;;;;;;4889808;29;20039;-77
2023/01/03 15:36:31;;;;;;;5.85;2.20;;;12.30;94.60;;;;;;4886284;29;20036;-77
2023/01/03 15:38:58;;;;;;;2.30;1.35;;;12.00;95.50;;;;;;4888894;29;20033;-77
2023/01/03 15:44:21;;;;;;;4.50;1.88;;;11.70;96.70;;;;;;4890085;29;20029;-78
2023/01/03 15:46:49;;;;;;;3.90;1.88;;;11.50;96.80;;;;;;4889884;29;20060;-76
2023/01/03 15:49:19;;;;;;;6.05;2.55;;;11.20;96.50;;;;;;4889830;29;20036;-76
2023/01/03 15:51:46;;;;;;;7.30;2.42;;;10.90;96.90;;;;;;4873519;29;20039;-78
2023/01/03 15:54:13;;;;;;;4.30;2.33;;;10.70;97.40;;;;;;4886125;29;20055;-78
2023/01/03 15:57:02;;;;;;;7.25;2.25;;;10.50;97.90;;;;;;4889327;29;20100;-78
2023/01/03 15:59:34;;;;;;;4.70;2.40;;;10.40;98.90;;;;;;4889053;29;20021;-75
2023/01/03 16:02:00;;;;;;;4.68;2.58;;;10.40;98.50;;;;;;4890446;29;20078;-75
2023/01/03 16:04:27;;;;;;;5.00;2.53;;;10.30;98.60;;;;;;4890190;29;20029;-74
2023/01/03 16:06:53;;;;;;;4.15;2.30;;;10.30;98.80;;;;;;4890349;29;20103;-75
2023/01/03 16:09:19;;;;;;;4.07;2.22;;;10.20;98.80;;;;;;4890248;29;20040;-74
2023/01/03 16:11:50;;;;;;;7.18;2.95;;;10.10;99.60;;;;;;4886364;29;20448;-79
2023/01/03 16:14:21;;;;;;;5.03;2.70;;;10.00;99.20;;;;;;4871916;29;20101;-77
2023/01/03 16:16:52;;;;;;;5.10;2.45;;;9.90;99.60;;;;;;4871516;29;20038;-77
2023/01/03 16:19:25;;;;;;;4.93;2.20;;;9.80;99.90;;;;;;4855508;29;20096;-78
2023/01/03 16:21:53;;;;;;;3.88;2.15;;;9.80;99.90;;;;;;4881623;29;20337;-78
2023/01/03 16:24:20;;;;;;;5.22;2.60;;;9.70;99.90;;;;;;4888817;29;20021;-76
2023/01/03 16:26:46;;;;;;;5.63;2.85;;;9.70;99.90;;;;;;4889751;29;20061;-79
2023/01/03 16:29:13;;;;;;;4.60;2.38;;;9.70;99.90;;;;;;4889890;29;20049;-75
2023/01/03 16:31:43;;;;;;;6.13;2.80;;;9.70;99.90;;;;;;4888263;29;20040;-81
2023/01/03 16:34:19;;;;;;;7.10;3.00;;;9.70;99.90;;;;;;4889736;29;20033;-78
2023/01/03 16:37:16;;;;;;;4.03;2.95;;;9.70;99.90;;;;;;4888225;29;20330;-80
2023/01/03 16:39:58;;;;;;;6.68;2.80;;;9.60;99.90;;;;;;4873881;29;20264;-78
2023/01/03 16:42:27;;;;;;;5.80;3.00;;;9.40;99.90;;;;;;4873537;29;20040;-74
2023/01/03 16:44:53;;;;;;;5.57;3.03;;;9.30;99.90;;;;;;4889797;29;20029;-75
2023/01/03 16:47:23;;;;;;;4.50;2.38;;;9.20;99.90;;;;;;4889427;29;20100;-75
2023/01/03 16:49:53;;;;;;;5.25;2.55;;;9.00;99.90;;;;;;4889007;29;20040;-74
2023/01/03 16:52:26;;;;;;;6.35;3.88;;;8.90;99.90;;;;;;4889414;29;20228;-73
2023/01/03 16:54:52;;;;;;;8.40;4.57;;;8.70;99.90;;;;;;4889712;29;20033;-75
2023/01/03 16:57:20;;;;;;;6.97;3.17;;;8.70;99.90;;;;;;4889759;29;20025;-71
2023/01/03 16:59:47;;;;;;;6.63;2.90;;;8.60;99.90;;;;;;4889357;29;20060;-73
2023/01/03 17:02:13;;;;;;;7.78;4.43;;;8.40;99.90;;;;;;4889323;29;20243;-72
2023/01/03 17:04:39;;;;;;;13.27;7.47;;;8.40;99.90;;;;;;4889201;29;20033;-74
2023/01/03 17:07:29;;;;;;;6.68;3.60;;;8.30;99.90;;;;;;4889427;29;20326;-78
2023/01/03 17:09:55;;;;;;;8.82;4.30;;;8.20;99.90;;;;;;4888088;29;20099;-73
2023/01/03 17:12:23;;;;;;;10.02;5.00;;;8.10;99.90;;;;;;4889378;29;20342;-71
2023/01/03 17:14:49;;;;;;;6.65;4.10;;;8.00;99.90;;;;;;4889115;29;20037;-72
2023/01/03 17:17:17;;;;;;;8.77;3.50;;;8.00;99.90;;;;;;4889526;29;20330;-73
2023/01/03 17:19:43;;;;;;;6.55;3.40;;;7.90;99.90;;;;;;4889209;29;20069;-72
2023/01/03 17:22:26;;;;;;;8.70;4.38;;;7.90;99.90;;;;;;4889244;29;20028;-72
2023/01/03 17:24:52;;;;;;;12.68;6.80;;;7.70;99.90;;;;;;4889227;29;20024;-78
2023/01/03 17:27:24;;;;;;;9.57;5.03;;;7.60;99.90;;;;;;4888223;29;20036;-73
2023/01/03 17:29:57;;;;;;;12.65;6.40;;;7.60;99.90;;;;;;4888563;29;20025;-76
2023/01/03 17:32:23;;;;;;;11.63;4.47;;;7.50;99.90;;;;;;4889171;29;20231;-79
2023/01/03 17:34:49;;;;;;;7.72;3.88;;;7.40;99.90;;;;;;4888567;29;20037;-81
2023/01/03 17:37:18;;;;;;;6.47;3.65;;;7.40;99.90;;;;;;4889244;29;20035;-75
2023/01/03 17:39:51;;;;;;;7.22;4.20;;;7.30;99.90;;;;;;4888592;29;20041;-75
2023/01/03 17:42:17;;;;;;;10.25;4.30;;;7.20;99.90;;;;;;4889268;29;20048;-77
2023/01/03 17:49:23;;;;;;;9.02;4.72;;;7.20;99.90;;;;;;4871261;29;20037;-76
2023/01/03 17:50:18;;;;;;;8.82;4.53;;;7.10;99.90;;;;;;4870233;29;20105;-76
2023/01/03 17:52:44;;;;;;;9.15;4.65;;;7.10;99.90;;;;;;4869468;29;20040;-76
2023/01/03 17:55:23;;;;;;;9.02;4.38;;;7.10;99.90;;;;;;4879957;29;20036;-78
2023/01/03 17:57:49;;;;;;;8.10;3.55;;;7.10;99.90;;;;;;4888657;29;20036;-77
2023/01/03 18:00:24;;;;;;;7.80;3.45;;;7.10;99.90;;;;;;4886942;29;20029;-78
2023/01/03 18:02:51;;;;;;;9.00;3.70;;;7.10;99.90;;;;;;4886370;29;20053;-80
2023/01/03 18:05:23;;;;;;;6.22;3.10;;;7.00;99.90;;;;;;4888613;29;20032;-77
2023/01/03 18:07:50;;;;;;;6.72;3.33;;;7.00;99.90;;;;;;4888417;29;20051;-77
2023/01/03 18:10:26;;;;;;;7.93;4.45;;;6.90;99.90;;;;;;4887088;29;20048;-77
2023/01/03 18:12:52;;;;;;;8.93;4.68;;;6.80;99.90;;;;;;4887812;29;20033;-76
2023/01/03 18:15:20;;;;;;;12.38;5.57;;;6.70;99.90;;;;;;4888766;29;20033;-77
2023/01/03 18:17:47;;;;;;;11.40;5.20;;;6.70;99.90;;;;;;4887953;29;20021;-78
2023/01/03 18:20:15;;;;;;;9.57;5.00;;;6.60;99.90;;;;;;4887432;29;20090;-77
2023/01/03 18:22:43;;;;;;;9.13;5.07;;;6.50;99.90;;;;;;4887358;29;20160;-77
2023/01/03 18:25:18;;;;;;;9.02;4.80;;;6.50;99.90;;;;;;4888627;29;20037;-76
2023/01/03 18:27:58;;;;;;;12.68;5.88;;;6.50;99.90;;;;;;4901042;29;20060;-75
2023/01/03 18:30:23;;;;;;;16.45;6.45;;;6.50;99.90;;;;;;4901761;29;20037;-77
2023/01/03 18:32:49;;;;;;;12.10;6.32;;;6.50;99.90;;;;;;4900960;29;20021;-76
2023/01/03 18:35:17;;;;;;;12.98;6.07;;;6.50;99.90;;;;;;4888520;29;20226;-76
2023/01/03 18:37:44;;;;;;;10.40;5.40;;;6.40;99.90;;;;;;4887607;29;20037;-76
2023/01/03 18:40:20;;;;;;;12.73;5.68;;;6.40;99.90;;;;;;4886830;29;20029;-77
2023/01/03 18:45:31;;;;;;;10.63;6.07;;;6.30;99.90;;;;;;4888347;29;20210;-77
2023/01/03 18:47:57;;;;;;;13.88;6.53;;;6.20;99.90;;;;;;4888118;29;20033;-76
2023/01/03 18:50:24;;;;;;;16.05;6.78;;;6.20;99.90;;;;;;4888029;29;20025;-77
2023/01/03 18:52:51;;;;;;;17.10;6.72;;;6.20;99.90;;;;;;4886736;29;20068;-78
2023/01/03 18:55:23;;;;;;;13.63;6.40;;;6.10;99.90;;;;;;4886780;29;20029;-78
2023/01/03 18:57:55;;;;;;;13.30;6.32;;;6.10;99.90;;;;;;4887491;29;20025;-80
2023/01/03 19:00:23;;;;;;;14.25;6.32;;;6.10;99.90;;;;;;4890883;29;20064;-76
2023/01/03 19:02:51;;;;;;;12.27;5.95;;;6.10;99.90;;;;;;4889995;29;20044;-75
2023/01/03 19:05:19;;;;;;;15.70;6.63;;;6.00;99.90;;;;;;4890856;29;20191;-76
2023/01/03 19:07:48;;;;;;;12.18;6.43;;;6.00;99.90;;;;;;4874311;29;20562;-78
2023/01/03 19:10:23;;;;;;;13.27;6.25;;;5.90;99.90;;;;;;4891496;29;20097;-76
2023/01/03 19:13:13;;;;;;;13.80;6.38;;;5.90;99.90;;;;;;4889895;29;20048;-77
2023/01/03 19:15:39;;;;;;;11.98;6.22;;;5.80;99.90;;;;;;4891057;29;20032;-76
2023/01/03 19:18:05;;;;;;;13.52;7.00;;;5.70;99.90;;;;;;4891720;29;20048;-76
2023/01/03 19:20:31;;;;;;;12.45;6.65;;;5.60;99.90;;;;;;4874682;29;20329;-77
2023/01/03 19:22:56;;;;;;;14.20;6.90;;;5.60;99.90;;;;;;4889785;29;20041;-77
2023/01/03 19:25:27;;;;;;;12.23;6.63;;;5.60;99.90;;;;;;4891464;29;20037;-76
2023/01/03 19:27:58;;;;;;;14.68;6.88;;;5.60;99.90;;;;;;4889890;29;20081;-76
2023/01/03 19:30:37;;;;;;;15.57;7.68;;;5.60;99.90;;;;;;4890153;29;20041;-73
2023/01/03 19:33:04;;;;;;;14.30;7.18;;;5.60;99.90;;;;;;4891035;29;20056;-73
2023/01/03 19:35:33;;;;;;;11.27;6.15;;;5.60;99.90;;;;;;4890926;29;20056;-74
2023/01/03 19:37:59;;;;;;;12.10;6.18;;;5.60;99.90;;;;;;4890456;29;20048;-73
2023/01/03 19:40:29;;;;;;;14.82;7.18;;;5.50;99.90;;;;;;4891009;29;20057;-73
2023/01/03 19:42:56;;;;;;;13.60;6.88;;;5.50;99.90;;;;;;4890727;29;20326;-73
2023/01/03 19:45:26;;;;;;;13.75;7.18;;;5.50;99.90;;;;;;4891148;29;20033;-71
2023/01/03 19:47:53;;;;;;;14.57;6.85;;;5.50;99.90;;;;;;4890528;29;20065;-75
2023/01/03 19:50:28;;;;;;;10.40;6.40;;;5.40;99.90;;;;;;4890985;29;20051;-71
2023/01/03 19:52:54;;;;;;;12.52;6.40;;;5.40;99.90;;;;;;4890247;29;20048;-74
2023/01/03 19:55:27;;;;;;;11.82;6.65;;;5.40;99.90;;;;;;4890592;29;20052;-72
2023/01/03 19:57:53;;;;;;;11.80;7.05;;;5.30;99.90;;;;;;4890342;29;20036;-72
2023/01/03 20:00:27;;;;;;;14.13;7.15;;;5.30;99.90;;;;;;4890911;29;20032;-71